sensor_id;sensor_type;location;lat;lon;timestamp;pressure;altitude;pressure_sealevel;temperature;humidity
17936;BME280;9093;52.062;4.508;2023-03-29T00:02:18;101910.75;;;8.21;67.99
17936;BME280;9093;52.062;4.508;2023-03-29T00:04:58;101900.13;;;8.21;68.21
17936;BME280;9093;52.062;4.508;2023-03-29T00:07:44;101897.38;;;8.22;68.06
17936;BME280;9093;52.062;4.508;2023-03-29T00:10:25;101886.81;;;8.21;68.00
17936;BME280;9093;52.062;4.508;2023-03-29T00:13:05;101887.63;;;8.23;68.06
17936;BME280;9093;52.062;4.508;2023-03-29T00:15:45;101880.47;;;8.25;68.21
17936;BME280;9093;52.062;4.508;2023-03-29T00:18:26;101876.91;;;8.26;67.88
17936;BME280;9093;52.062;4.508;2023-03-29T00:21:06;101880.41;;;8.28;68.20
17936;BME280;9093;52.062;4.508;2023-03-29T00:23:47;101885.66;;;8.31;68.12
17936;BME280;9093;52.062;4.508;2023-03-29T00:26:27;101875.03;;;8.31;67.95
17936;BME280;9093;52.062;4.508;2023-03-29T00:29:08;101878.56;;;8.31;68.12
17936;BME280;9093;52.062;4.508;2023-03-29T00:31:48;101870.56;;;8.31;68.14
17936;BME280;9093;52.062;4.508;2023-03-29T00:34:33;101855.47;;;8.32;68.23
17936;BME280;9093;52.062;4.508;2023-03-29T00:37:16;101858.19;;;8.30;67.94
17936;BME280;9093;52.062;4.508;2023-03-29T00:39:57;101855.53;;;8.30;68.29
17936;BME280;9093;52.062;4.508;2023-03-29T00:42:38;101858.19;;;8.30;68.16
17936;BME280;9093;52.062;4.508;2023-03-29T00:45:21;101848.41;;;8.31;68.23
17936;BME280;9093;52.062;4.508;2023-03-29T00:48:05;101850.13;;;8.33;68.12
17936;BME280;9093;52.062;4.508;2023-03-29T00:50:51;101842.16;;;8.33;67.95
17936;BME280;9093;52.062;4.508;2023-03-29T00:53:37;101837.69;;;8.34;68.11
17936;BME280;9093;52.062;4.508;2023-03-29T00:56:30;101841.16;;;8.36;68.09
17936;BME280;9093;52.062;4.508;2023-03-29T00:59:19;101839.38;;;8.36;68.00
17936;BME280;9093;52.062;4.508;2023-03-29T01:02:03;101847.31;;;8.38;67.99
17936;BME280;9093;52.062;4.508;2023-03-29T01:04:51;101840.22;;;8.38;67.90
17936;BME280;9093;52.062;4.508;2023-03-29T01:07:43;101842.84;;;8.40;67.97
17936;BME280;9093;52.062;4.508;2023-03-29T01:10:46;101835.78;;;8.39;67.85
17936;BME280;9093;52.062;4.508;2023-03-29T01:13:40;101825.13;;;8.39;68.19
17936;BME280;9093;52.062;4.508;2023-03-29T01:16:23;101826.88;;;8.40;67.95
17936;BME280;9093;52.062;4.508;2023-03-29T01:19:06;101823.34;;;8.39;67.99
17936;BME280;9093;52.062;4.508;2023-03-29T01:22:07;101821.56;;;8.40;68.08
17936;BME280;9093;52.062;4.508;2023-03-29T01:24:57;101813.50;;;8.41;68.09
17936;BME280;9093;52.062;4.508;2023-03-29T01:28:03;101809.16;;;8.39;68.08
17936;BME280;9093;52.062;4.508;2023-03-29T01:30:52;101802.84;;;8.41;67.81
17936;BME280;9093;52.062;4.508;2023-03-29T01:33:38;101803.66;;;8.45;67.79
17936;BME280;9093;52.062;4.508;2023-03-29T01:36:25;101802.75;;;8.46;67.90
17936;BME280;9093;52.062;4.508;2023-03-29T01:39:06;101803.53;;;8.48;68.07
17936;BME280;9093;52.062;4.508;2023-03-29T01:47:55;101797.47;;;8.44;68.00
17936;BME280;9093;52.062;4.508;2023-03-29T01:50:59;101794.69;;;8.47;67.94
17936;BME280;9093;52.062;4.508;2023-03-29T01:53:38;101792.91;;;8.48;67.86
17936;BME280;9093;52.062;4.508;2023-03-29T01:56:23;101796.41;;;8.50;68.17
17936;BME280;9093;52.062;4.508;2023-03-29T01:59:08;101794.56;;;8.52;68.24
17936;BME280;9093;52.062;4.508;2023-03-29T02:01:53;101791.81;;;8.55;67.95
17936;BME280;9093;52.062;4.508;2023-03-29T02:04:37;101789.13;;;8.55;68.10
17936;BME280;9093;52.062;4.508;2023-03-29T02:07:23;101784.66;;;8.57;67.99
17936;BME280;9093;52.062;4.508;2023-03-29T02:10:07;101785.50;;;8.59;68.21
17936;BME280;9093;52.062;4.508;2023-03-29T02:12:48;101784.53;;;8.60;68.00
17936;BME280;9093;52.062;4.508;2023-03-29T02:15:29;101781.88;;;8.60;68.18
17936;BME280;9093;52.062;4.508;2023-03-29T02:18:10;101778.31;;;8.61;68.11
17936;BME280;9093;52.062;4.508;2023-03-29T02:20:51;101772.03;;;8.64;68.03
17936;BME280;9093;52.062;4.508;2023-03-29T02:23:37;101774.72;;;8.62;68.32
17936;BME280;9093;52.062;4.508;2023-03-29T02:26:20;101770.28;;;8.63;68.17
17936;BME280;9093;52.062;4.508;2023-03-29T02:29:01;101763.13;;;8.65;68.17
17936;BME280;9093;52.062;4.508;2023-03-29T02:31:54;101753.34;;;8.65;68.40
17936;BME280;9093;52.062;4.508;2023-03-29T02:34:49;101753.34;;;8.65;68.15
17936;BME280;9093;52.062;4.508;2023-03-29T02:37:36;101758.56;;;8.68;68.17
17936;BME280;9093;52.062;4.508;2023-03-29T02:40:20;101749.66;;;8.69;68.10
17936;BME280;9093;52.062;4.508;2023-03-29T02:43:04;101747.00;;;8.69;68.40
17936;BME280;9093;52.062;4.508;2023-03-29T02:45:46;101752.31;;;8.69;68.17
17936;BME280;9093;52.062;4.508;2023-03-29T02:48:27;101735.44;;;8.70;68.12
17936;BME280;9093;52.062;4.508;2023-03-29T02:51:15;101740.75;;;8.70;68.16
17936;BME280;9093;52.062;4.508;2023-03-29T02:53:58;101738.94;;;8.72;68.25
17936;BME280;9093;52.062;4.508;2023-03-29T02:56:44;101740.84;;;8.67;68.49
17936;BME280;9093;52.062;4.508;2023-03-29T02:59:25;101744.34;;;8.69;68.31
17936;BME280;9093;52.062;4.508;2023-03-29T03:02:06;101734.53;;;8.71;68.35
17936;BME280;9093;52.062;4.508;2023-03-29T03:04:46;101727.41;;;8.72;68.54
17936;BME280;9093;52.062;4.508;2023-03-29T03:07:26;101733.59;;;8.72;68.35
17936;BME280;9093;52.062;4.508;2023-03-29T03:10:08;101735.31;;;8.73;68.52
17936;BME280;9093;52.062;4.508;2023-03-29T03:12:49;101730.00;;;8.73;68.91
17936;BME280;9093;52.062;4.508;2023-03-29T03:15:29;101719.25;;;8.76;68.46
17936;BME280;9093;52.062;4.508;2023-03-29T03:18:10;101722.84;;;8.75;68.44
17936;BME280;9093;52.062;4.508;2023-03-29T03:20:58;101721.00;;;8.77;68.59
17936;BME280;9093;52.062;4.508;2023-03-29T03:23:40;101721.00;;;8.77;68.65
17936;BME280;9093;52.062;4.508;2023-03-29T03:26:22;101724.59;;;8.76;68.83
17936;BME280;9093;52.062;4.508;2023-03-29T03:29:04;101713.94;;;8.76;68.92
17936;BME280;9093;52.062;4.508;2023-03-29T03:31:44;101707.72;;;8.76;68.56
17936;BME280;9093;52.062;4.508;2023-03-29T03:34:24;101716.56;;;8.78;68.94
17936;BME280;9093;52.062;4.508;2023-03-29T03:37:05;101712.09;;;8.78;68.63
17936;BME280;9093;52.062;4.508;2023-03-29T03:39:45;101721.81;;;8.79;68.94
17936;BME280;9093;52.062;4.508;2023-03-29T03:42:27;101715.56;;;8.80;68.85
17936;BME280;9093;52.062;4.508;2023-03-29T03:45:08;101711.13;;;8.81;68.63
17936;BME280;9093;52.062;4.508;2023-03-29T03:47:50;101713.72;;;8.82;69.05
17936;BME280;9093;52.062;4.508;2023-03-29T03:50:30;101716.41;;;8.82;68.99
17936;BME280;9093;52.062;4.508;2023-03-29T03:53:11;101712.00;;;8.81;68.75
17936;BME280;9093;52.062;4.508;2023-03-29T03:55:52;101717.31;;;8.81;68.92
17936;BME280;9093;52.062;4.508;2023-03-29T03:58:35;101710.16;;;8.83;69.06
17936;BME280;9093;52.062;4.508;2023-03-29T04:01:16;101708.28;;;8.85;68.84
17936;BME280;9093;52.062;4.508;2023-03-29T04:03:57;101706.56;;;8.84;68.86
17936;BME280;9093;52.062;4.508;2023-03-29T04:06:37;101704.72;;;8.86;69.13
17936;BME280;9093;52.062;4.508;2023-03-29T04:09:18;101699.38;;;8.86;69.06
17936;BME280;9093;52.062;4.508;2023-03-29T04:12:00;101699.38;;;8.86;68.85
17936;BME280;9093;52.062;4.508;2023-03-29T04:14:40;101692.31;;;8.85;68.92
17936;BME280;9093;52.062;4.508;2023-03-29T04:17:21;101686.91;;;8.88;69.12
17936;BME280;9093;52.062;4.508;2023-03-29T04:20:01;101692.22;;;8.88;69.22
17936;BME280;9093;52.062;4.508;2023-03-29T04:22:50;101681.56;;;8.88;69.18
17936;BME280;9093;52.062;4.508;2023-03-29T04:25:30;101683.31;;;8.90;68.97
17936;BME280;9093;52.062;4.508;2023-03-29T04:28:11;101679.75;;;8.91;69.26
17936;BME280;9093;52.062;4.508;2023-03-29T04:30:52;101671.69;;;8.92;68.96
17936;BME280;9093;52.062;4.508;2023-03-29T04:33:32;101667.22;;;8.93;68.88
17936;BME280;9093;52.062;4.508;2023-03-29T04:36:12;101672.56;;;8.93;69.03
17936;BME280;9093;52.062;4.508;2023-03-29T04:38:54;101666.31;;;8.94;69.04
17936;BME280;9093;52.062;4.508;2023-03-29T04:41:35;101680.44;;;8.96;69.04
17936;BME280;9093;52.062;4.508;2023-03-29T04:44:15;101669.78;;;8.96;69.13
17936;BME280;9093;52.062;4.508;2023-03-29T04:46:56;101672.47;;;8.96;69.37
17936;BME280;9093;52.062;4.508;2023-03-29T04:49:36;101658.22;;;8.97;69.24
17936;BME280;9093;52.062;4.508;2023-03-29T04:52:16;101667.00;;;8.99;69.29
17936;BME280;9093;52.062;4.508;2023-03-29T04:54:58;101667.00;;;8.99;69.41
17936;BME280;9093;52.062;4.508;2023-03-29T04:57:38;101664.31;;;9.00;69.22
17936;BME280;9093;52.062;4.508;2023-03-29T05:00:19;101668.72;;;9.01;69.15
17936;BME280;9093;52.062;4.508;2023-03-29T05:03:06;101669.53;;;9.03;69.48
17936;BME280;9093;52.062;4.508;2023-03-29T05:05:46;101665.09;;;9.04;69.45
17936;BME280;9093;52.062;4.508;2023-03-29T05:08:26;101677.47;;;9.05;69.52
17936;BME280;9093;52.062;4.508;2023-03-29T05:11:08;101679.19;;;9.06;69.55
17936;BME280;9093;52.062;4.508;2023-03-29T05:13:49;101688.03;;;9.08;69.30
17936;BME280;9093;52.062;4.508;2023-03-29T05:16:30;101687.16;;;9.07;69.50
17936;BME280;9093;52.062;4.508;2023-03-29T05:19:11;101693.34;;;9.08;69.46
17936;BME280;9093;52.062;4.508;2023-03-29T05:21:52;101689.78;;;9.09;69.53
17936;BME280;9093;52.062;4.508;2023-03-29T05:24:32;101693.22;;;9.11;69.56
17936;BME280;9093;52.062;4.508;2023-03-29T05:27:13;101694.97;;;9.12;69.67
17936;BME280;9093;52.062;4.508;2023-03-29T05:29:53;101686.06;;;9.13;69.70
17936;BME280;9093;52.062;4.508;2023-03-29T05:32:35;101686.91;;;9.15;69.59
17936;BME280;9093;52.062;4.508;2023-03-29T05:35:16;101677.09;;;9.15;69.60
17936;BME280;9093;52.062;4.508;2023-03-29T05:37:56;101676.19;;;9.16;69.84
17936;BME280;9093;52.062;4.508;2023-03-29T05:40:37;101672.56;;;9.17;69.68
17936;BME280;9093;52.062;4.508;2023-03-29T05:43:17;101678.78;;;9.18;69.57
17936;BME280;9093;52.062;4.508;2023-03-29T05:45:58;101689.44;;;9.18;69.74
17936;BME280;9093;52.062;4.508;2023-03-29T05:48:38;101691.19;;;9.19;69.63
17936;BME280;9093;52.062;4.508;2023-03-29T05:51:18;101686.72;;;9.19;69.71
17936;BME280;9093;52.062;4.508;2023-03-29T05:54:03;101695.53;;;9.21;69.85
17936;BME280;9093;52.062;4.508;2023-03-29T05:56:43;101695.50;;;9.23;69.87
17936;BME280;9093;52.062;4.508;2023-03-29T05:59:24;101695.44;;;9.24;70.07
17936;BME280;9093;52.062;4.508;2023-03-29T06:02:09;101687.44;;;9.24;70.03
17936;BME280;9093;52.062;4.508;2023-03-29T06:04:49;101685.63;;;9.25;70.07
17936;BME280;9093;52.062;4.508;2023-03-29T06:07:30;101691.78;;;9.27;69.80
17936;BME280;9093;52.062;4.508;2023-03-29T06:10:11;101686.34;;;9.30;69.83
17936;BME280;9093;52.062;4.508;2023-03-29T06:12:51;101685.41;;;9.31;70.20
17936;BME280;9093;52.062;4.508;2023-03-29T06:15:33;101685.41;;;9.31;70.24
17936;BME280;9093;52.062;4.508;2023-03-29T06:18:14;101678.25;;;9.33;70.17
17936;BME280;9093;52.062;4.508;2023-03-29T06:20:54;101673.81;;;9.34;70.24
17936;BME280;9093;52.062;4.508;2023-03-29T06:23:35;101680.78;;;9.36;69.92
17936;BME280;9093;52.062;4.508;2023-03-29T06:26:15;101692.28;;;9.38;70.10
17936;BME280;9093;52.062;4.508;2023-03-29T06:28:57;101691.31;;;9.41;69.82
17936;BME280;9093;52.062;4.508;2023-03-29T06:31:37;101695.66;;;9.43;70.27
17936;BME280;9093;52.062;4.508;2023-03-29T06:34:17;101688.47;;;9.45;70.17
17936;BME280;9093;52.062;4.508;2023-03-29T06:36:58;101688.44;;;9.47;70.17
17936;BME280;9093;52.062;4.508;2023-03-29T06:39:38;101677.72;;;9.48;70.11
17936;BME280;9093;52.062;4.508;2023-03-29T06:42:20;101681.19;;;9.50;70.16
17936;BME280;9093;52.062;4.508;2023-03-29T06:45:01;101684.63;;;9.54;70.21
17936;BME280;9093;52.062;4.508;2023-03-29T06:47:42;101686.28;;;9.56;70.35
17936;BME280;9093;52.062;4.508;2023-03-29T06:50:23;101694.19;;;9.59;70.09
17936;BME280;9093;52.062;4.508;2023-03-29T06:53:04;101702.06;;;9.62;70.19
17936;BME280;9093;52.062;4.508;2023-03-29T06:55:44;101705.56;;;9.64;70.42
17936;BME280;9093;52.062;4.508;2023-03-29T06:58:25;101713.50;;;9.66;70.26
17936;BME280;9093;52.062;4.508;2023-03-29T07:01:05;101712.50;;;9.68;70.60
17936;BME280;9093;52.062;4.508;2023-03-29T07:03:46;101716.00;;;9.71;70.63
17936;BME280;9093;52.062;4.508;2023-03-29T07:06:26;101708.81;;;9.73;70.42
17936;BME280;9093;52.062;4.508;2023-03-29T07:09:06;101716.75;;;9.74;70.66
17936;BME280;9093;52.062;4.508;2023-03-29T07:11:47;101712.19;;;9.78;70.61
17936;BME280;9093;52.062;4.508;2023-03-29T07:14:29;101716.53;;;9.80;70.51
17936;BME280;9093;52.062;4.508;2023-03-29T07:17:10;101712.84;;;9.84;70.61
17936;BME280;9093;52.062;4.508;2023-03-29T07:19:50;101715.44;;;9.86;70.48
17936;BME280;9093;52.062;4.508;2023-03-29T07:22:31;101719.81;;;9.87;70.72
17936;BME280;9093;52.062;4.508;2023-03-29T07:25:13;101714.41;;;9.90;70.69
17936;BME280;9093;52.062;4.508;2023-03-29T07:27:55;101715.22;;;9.92;70.79
17936;BME280;9093;52.062;4.508;2023-03-29T07:30:36;101711.56;;;9.94;70.74
17936;BME280;9093;52.062;4.508;2023-03-29T07:33:16;101714.06;;;9.99;70.87
17936;BME280;9093;52.062;4.508;2023-03-29T07:35:57;101722.81;;;10.02;70.89
17936;BME280;9093;52.062;4.508;2023-03-29T07:38:38;101715.56;;;10.06;70.82
17936;BME280;9093;52.062;4.508;2023-03-29T07:41:18;101709.19;;;10.10;70.77
17936;BME280;9093;52.062;4.508;2023-03-29T07:43:58;101715.31;;;10.12;71.12
17936;BME280;9093;52.062;4.508;2023-03-29T07:46:44;101701.88;;;10.15;71.12
17936;BME280;9093;52.062;4.508;2023-03-29T07:49:24;101709.72;;;10.20;70.98
17936;BME280;9093;52.062;4.508;2023-03-29T07:52:05;101711.38;;;10.24;70.89
17936;BME280;9093;52.062;4.508;2023-03-29T07:54:45;101715.69;;;10.26;70.81
17936;BME280;9093;52.062;4.508;2023-03-29T07:57:25;101720.94;;;10.29;71.08
17936;BME280;9093;52.062;4.508;2023-03-29T08:00:07;101717.22;;;10.33;70.95
17936;BME280;9093;52.062;4.508;2023-03-29T08:02:52;101713.47;;;10.37;70.91
17936;BME280;9093;52.062;4.508;2023-03-29T08:05:32;101715.13;;;10.41;71.07
17936;BME280;9093;52.062;4.508;2023-03-29T08:08:13;101712.31;;;10.44;71.00
17936;BME280;9093;52.062;4.508;2023-03-29T08:10:53;101716.63;;;10.48;71.02
17936;BME280;9093;52.062;4.508;2023-03-29T08:13:35;101723.56;;;10.53;71.23
17936;BME280;9093;52.062;4.508;2023-03-29T08:16:15;101707.44;;;10.56;71.21
17936;BME280;9093;52.062;4.508;2023-03-29T08:18:55;101691.28;;;10.59;71.41
17936;BME280;9093;52.062;4.508;2023-03-29T08:21:36;101697.28;;;10.64;71.18
17936;BME280;9093;52.062;4.508;2023-03-29T08:24:16;101699.84;;;10.67;71.38
17936;BME280;9093;52.062;4.508;2023-03-29T08:26:57;101717.50;;;10.71;71.67
17936;BME280;9093;52.062;4.508;2023-03-29T08:29:37;101712.03;;;10.74;71.28
17936;BME280;9093;52.062;4.508;2023-03-29T08:32:17;101704.81;;;10.76;71.35
17936;BME280;9093;52.062;4.508;2023-03-29T08:34:58;101702.91;;;10.79;71.51
17936;BME280;9093;52.062;4.508;2023-03-29T08:37:38;101692.84;;;10.86;71.59
17936;BME280;9093;52.062;4.508;2023-03-29T08:40:21;101691.66;;;10.93;71.58
17936;BME280;9093;52.062;4.508;2023-03-29T08:46:54;101706.34;;;11.03;71.47
17936;BME280;9093;52.062;4.508;2023-03-29T08:49:39;101717.72;;;11.08;71.44
17936;BME280;9093;52.062;4.508;2023-03-29T08:58:11;101697.97;;;11.12;71.69
17936;BME280;9093;52.062;4.508;2023-03-29T09:00:58;101693.53;;;11.11;71.90
17936;BME280;9093;52.062;4.508;2023-03-29T09:04:01;101697.09;;;11.12;72.08
17936;BME280;9093;52.062;4.508;2023-03-29T09:06:42;101708.50;;;11.15;72.00
17936;BME280;9093;52.062;4.508;2023-03-29T09:09:28;101703.09;;;11.17;72.19
17936;BME280;9093;52.062;4.508;2023-03-29T09:15:21;101693.69;;;11.28;72.06
17936;BME280;9093;52.062;4.508;2023-03-29T09:18:16;101701.44;;;11.35;72.10
17936;BME280;9093;52.062;4.508;2023-03-29T09:21:22;101699.47;;;11.38;71.93
17936;BME280;9093;52.062;4.508;2023-03-29T09:24:12;101710.06;;;11.41;72.04
17936;BME280;9093;52.062;4.508;2023-03-29T09:30:02;101703.03;;;11.39;72.47
17936;BME280;9093;52.062;4.508;2023-03-29T09:32:58;101712.78;;;11.40;72.59
17936;BME280;9093;52.062;4.508;2023-03-29T09:35:43;101723.44;;;11.41;72.43
17936;BME280;9093;52.062;4.508;2023-03-29T09:38:29;101710.94;;;11.42;72.44
17936;BME280;9093;52.062;4.508;2023-03-29T09:41:26;101726.03;;;11.43;72.43
17936;BME280;9093;52.062;4.508;2023-03-29T09:44:15;101717.00;;;11.45;72.37
17936;BME280;9093;52.062;4.508;2023-03-29T09:47:02;101714.28;;;11.47;72.44
17936;BME280;9093;52.062;4.508;2023-03-29T09:49:48;101716.81;;;11.50;72.40
17936;BME280;9093;52.062;4.508;2023-03-29T09:52:29;101701.56;;;11.52;72.61
17936;BME280;9093;52.062;4.508;2023-03-29T09:55:15;101713.72;;;11.59;72.62
17936;BME280;9093;52.062;4.508;2023-03-29T09:57:59;101710.00;;;11.63;72.41
17936;BME280;9093;52.062;4.508;2023-03-29T10:00:41;101708.91;;;11.67;72.40
17936;BME280;9093;52.062;4.508;2023-03-29T10:03:25;101707.13;;;11.67;72.68
17936;BME280;9093;52.062;4.508;2023-03-29T10:06:08;101711.59;;;11.67;72.70
17936;BME280;9093;52.062;4.508;2023-03-29T10:08:52;101690.03;;;11.70;72.52
17936;BME280;9093;52.062;4.508;2023-03-29T10:11:37;101698.78;;;11.75;72.74
17936;BME280;9093;52.062;4.508;2023-03-29T10:14:28;101708.47;;;11.78;72.65
17936;BME280;9093;52.062;4.508;2023-03-29T10:17:22;101701.31;;;11.78;72.77
17936;BME280;9093;52.062;4.508;2023-03-29T10:20:05;101700.25;;;11.82;72.82
17936;BME280;9093;52.062;4.508;2023-03-29T10:22:48;101698.50;;;11.81;72.93
17936;BME280;9093;52.062;4.508;2023-03-29T10:25:37;101690.38;;;11.83;72.90
17936;BME280;9093;52.062;4.508;2023-03-29T10:28:20;101677.81;;;11.85;72.91
17936;BME280;9093;52.062;4.508;2023-03-29T10:31:02;101676.94;;;11.84;72.82
17936;BME280;9093;52.062;4.508;2023-03-29T10:33:48;101687.81;;;11.81;72.77
17936;BME280;9093;52.062;4.508;2023-03-29T10:36:30;101673.56;;;11.81;73.23
17936;BME280;9093;52.062;4.508;2023-03-29T10:39:13;101668.16;;;11.82;73.05
17936;BME280;9093;52.062;4.508;2023-03-29T10:41:58;101659.16;;;11.83;73.09
17936;BME280;9093;52.062;4.508;2023-03-29T10:44:38;101659.09;;;11.85;73.22
17936;BME280;9093;52.062;4.508;2023-03-29T10:47:20;101659.84;;;11.88;73.28
17936;BME280;9093;52.062;4.508;2023-03-29T10:50:04;101657.16;;;11.88;73.23
17936;BME280;9093;52.062;4.508;2023-03-29T10:52:45;101652.66;;;11.89;73.34
17936;BME280;9093;52.062;4.508;2023-03-29T10:55:33;101644.56;;;11.90;73.38
17936;BME280;9093;52.062;4.508;2023-03-29T10:58:27;101639.94;;;11.94;73.22
17936;BME280;9093;52.062;4.508;2023-03-29T11:01:16;101647.88;;;11.95;73.39
17936;BME280;9093;52.062;4.508;2023-03-29T11:10:17;101654.84;;;11.99;73.13
17936;BME280;9093;52.062;4.508;2023-03-29T11:25:56;101677.25;;;12.16;73.12
17936;BME280;9093;52.062;4.508;2023-03-29T11:28:56;101686.09;;;12.18;73.26
17936;BME280;9093;52.062;4.508;2023-03-29T11:32:00;101682.47;;;12.19;73.16
17936;BME280;9093;52.062;4.508;2023-03-29T11:46:54;101670.16;;;12.15;73.59
17936;BME280;9093;52.062;4.508;2023-03-29T11:49:42;101667.19;;;12.21;73.55
17936;BME280;9093;52.062;4.508;2023-03-29T11:52:27;101660.84;;;12.23;73.62
17936;BME280;9093;52.062;4.508;2023-03-29T11:55:25;101666.13;;;12.25;73.38
17936;BME280;9093;52.062;4.508;2023-03-29T12:01:11;101648.03;;;12.30;73.26
17936;BME280;9093;52.062;4.508;2023-03-29T12:04:00;101633.53;;;12.34;73.39
17936;BME280;9093;52.062;4.508;2023-03-29T12:12:54;101623.91;;;12.48;73.29
17936;BME280;9093;52.062;4.508;2023-03-29T12:16:05;101630.75;;;12.54;73.11
17936;BME280;9093;52.062;4.508;2023-03-29T12:18:53;101638.50;;;12.60;73.09
17936;BME280;9093;52.062;4.508;2023-03-29T12:21:34;101634.06;;;12.59;73.12
17936;BME280;9093;52.062;4.508;2023-03-29T12:24:20;101632.34;;;12.58;73.01
17936;BME280;9093;52.062;4.508;2023-03-29T12:27:21;101632.50;;;12.55;73.34
17936;BME280;9093;52.062;4.508;2023-03-29T12:30:30;101624.59;;;12.52;73.20
17936;BME280;9093;52.062;4.508;2023-03-29T12:36:42;101603.66;;;12.60;73.24
17936;BME280;9093;52.062;4.508;2023-03-29T12:39:29;101594.38;;;12.67;73.02
17936;BME280;9093;52.062;4.508;2023-03-29T12:42:18;101586.19;;;12.70;72.87
17936;BME280;9093;52.062;4.508;2023-03-29T12:45:00;101581.47;;;12.75;72.91
17936;BME280;9093;52.062;4.508;2023-03-29T12:47:42;101572.31;;;12.79;72.79
17936;BME280;9093;52.062;4.508;2023-03-29T12:50:31;101586.34;;;12.84;72.63
17936;BME280;9093;52.062;4.508;2023-03-29T12:59:15;101582.25;;;12.95;72.63
17936;BME280;9093;52.062;4.508;2023-03-29T13:01:59;101566.88;;;12.98;72.58
17936;BME280;9093;52.062;4.508;2023-03-29T13:10:32;101561.44;;;13.17;72.38
17936;BME280;9093;52.062;4.508;2023-03-29T13:13:20;101560.16;;;13.24;72.53
17936;BME280;9093;52.062;4.508;2023-03-29T13:16:14;101551.97;;;13.27;72.35
17936;BME280;9093;52.062;4.508;2023-03-29T13:19:34;101539.31;;;13.29;72.45
17936;BME280;9093;52.062;4.508;2023-03-29T13:22:37;101532.06;;;13.31;72.38
17936;BME280;9093;52.062;4.508;2023-03-29T13:28:31;101520.41;;;13.32;72.65
17936;BME280;9093;52.062;4.508;2023-03-29T13:31:31;101516.78;;;13.33;72.61
17936;BME280;9093;52.062;4.508;2023-03-29T13:34:37;101513.91;;;13.36;72.59
17936;BME280;9093;52.062;4.508;2023-03-29T13:37:34;101516.44;;;13.39;72.52
17936;BME280;9093;52.062;4.508;2023-03-29T13:43:28;101509.00;;;13.44;72.50
17936;BME280;9093;52.062;4.508;2023-03-29T13:46:19;101511.50;;;13.47;72.62
17936;BME280;9093;52.062;4.508;2023-03-29T13:52:11;101503.22;;;13.67;72.05
17936;BME280;9093;52.062;4.508;2023-03-29T13:54:59;101507.13;;;13.78;72.05
17936;BME280;9093;52.062;4.508;2023-03-29T13:57:45;101499.81;;;13.80;71.98
17936;BME280;9093;52.062;4.508;2023-03-29T14:00:33;101492.56;;;13.82;72.14
17936;BME280;9093;52.062;4.508;2023-03-29T14:03:19;101486.41;;;13.80;72.16
17936;BME280;9093;52.062;4.508;2023-03-29T14:06:05;101484.50;;;13.82;72.09
17936;BME280;9093;52.062;4.508;2023-03-29T14:08:46;101484.31;;;13.85;72.38
17936;BME280;9093;52.062;4.508;2023-03-29T14:11:29;101483.38;;;13.86;72.28
17936;BME280;9093;52.062;4.508;2023-03-29T14:14:10;101482.25;;;13.90;72.24
17936;BME280;9093;52.062;4.508;2023-03-29T14:16:54;101467.09;;;13.89;72.21
17936;BME280;9093;52.062;4.508;2023-03-29T14:19:36;101459.66;;;13.94;72.16
17936;BME280;9093;52.062;4.508;2023-03-29T14:22:19;101455.81;;;13.98;72.22
17936;BME280;9093;52.062;4.508;2023-03-29T14:25:04;101446.56;;;14.03;72.27
17936;BME280;9093;52.062;4.508;2023-03-29T14:27:45;101438.16;;;14.09;72.15
17936;BME280;9093;52.062;4.508;2023-03-29T14:30:27;101438.47;;;14.19;72.20
17936;BME280;9093;52.062;4.508;2023-03-29T14:33:14;101427.44;;;14.24;71.89
17936;BME280;9093;52.062;4.508;2023-03-29T14:36:03;101421.03;;;14.26;71.83
17936;BME280;9093;52.062;4.508;2023-03-29T14:38:57;101419.13;;;14.28;71.84
17936;BME280;9093;52.062;4.508;2023-03-29T14:41:45;101412.00;;;14.27;71.89
17936;BME280;9093;52.062;4.508;2023-03-29T14:44:30;101412.97;;;14.26;72.00
17936;BME280;9093;52.062;4.508;2023-03-29T14:47:26;101418.63;;;14.22;72.06
17936;BME280;9093;52.062;4.508;2023-03-29T14:50:20;101397.13;;;14.22;72.05
17936;BME280;9093;52.062;4.508;2023-03-29T14:53:04;101400.00;;;14.19;72.24
17936;BME280;9093;52.062;4.508;2023-03-29T14:55:48;101411.59;;;14.19;72.37
17936;BME280;9093;52.062;4.508;2023-03-29T14:58:32;101408.75;;;14.22;72.09
17936;BME280;9093;52.062;4.508;2023-03-29T15:01:15;101406.16;;;14.21;72.09
17936;BME280;9093;52.062;4.508;2023-03-29T15:04:03;101414.13;;;14.22;72.17
17936;BME280;9093;52.062;4.508;2023-03-29T15:06:44;101412.97;;;14.26;72.02
17936;BME280;9093;52.062;4.508;2023-03-29T15:09:32;101407.69;;;14.25;72.16
17936;BME280;9093;52.062;4.508;2023-03-29T15:12:14;101407.09;;;14.20;71.99
17936;BME280;9093;52.062;4.508;2023-03-29T15:14:55;101398.38;;;14.16;72.25
17936;BME280;9093;52.062;4.508;2023-03-29T15:17:37;101394.53;;;14.20;71.93
17936;BME280;9093;52.062;4.508;2023-03-29T15:20:20;101373.59;;;14.11;72.10
17936;BME280;9093;52.062;4.508;2023-03-29T15:23:17;101373.88;;;14.06;72.26
17936;BME280;9093;52.062;4.508;2023-03-29T15:26:14;101379.78;;;13.97;72.41
17936;BME280;9093;52.062;4.508;2023-03-29T15:29:15;101372.09;;;13.91;72.50
17936;BME280;9093;52.062;4.508;2023-03-29T15:32:02;101372.97;;;13.92;72.57
17936;BME280;9093;52.062;4.508;2023-03-29T15:34:43;101366.06;;;13.88;72.50
17936;BME280;9093;52.062;4.508;2023-03-29T15:37:23;101363.44;;;13.86;72.58
17936;BME280;9093;52.062;4.508;2023-03-29T15:40:05;101344.94;;;13.82;72.75
17936;BME280;9093;52.062;4.508;2023-03-29T15:42:49;101333.44;;;13.80;72.77
17936;BME280;9093;52.062;4.508;2023-03-29T15:45:30;101315.59;;;13.79;72.97
17936;BME280;9093;52.062;4.508;2023-03-29T15:48:19;101303.16;;;13.78;72.80
17936;BME280;9093;52.062;4.508;2023-03-29T15:51:01;101308.53;;;13.78;72.82
17936;BME280;9093;52.062;4.508;2023-03-29T15:53:41;101308.59;;;13.76;72.70
17936;BME280;9093;52.062;4.508;2023-03-29T15:56:21;101298.91;;;13.74;72.72
17936;BME280;9093;52.062;4.508;2023-03-29T15:59:05;101299.84;;;13.73;72.84
17936;BME280;9093;52.062;4.508;2023-03-29T16:01:46;101286.44;;;13.73;72.95
17936;BME280;9093;52.062;4.508;2023-03-29T16:04:26;101275.69;;;13.73;72.89